sensor_id;sensor_type;location;lat;lon;timestamp;P1;durP1;ratioP1;P2;durP2;ratioP2
20928;SDS011;21895;47.072;15.132;2023-02-01T00:01:55;19.53;;;6.87;;
20928;SDS011;21895;47.072;15.132;2023-02-01T00:04:22;25.03;;;7.20;;
20928;SDS011;21895;47.072;15.132;2023-02-01T00:06:48;24.23;;;6.43;;
20928;SDS011;21895;47.072;15.132;2023-02-01T00:09:15;16.23;;;6.40;;
20928;SDS011;21895;47.072;15.132;2023-02-01T00:11:41;21.50;;;5.77;;
20928;SDS011;21895;47.072;15.132;2023-02-01T00:14:08;23.97;;;7.20;;
20928;SDS011;21895;47.072;15.132;2023-02-01T00:16:35;26.47;;;7.53;;
20928;SDS011;21895;47.072;15.132;2023-02-01T00:19:06;24.73;;;8.70;;
20928;SDS011;21895;47.072;15.132;2023-02-01T00:21:39;31.60;;;9.07;;
20928;SDS011;21895;47.072;15.132;2023-02-01T00:24:06;23.70;;;9.57;;
20928;SDS011;21895;47.072;15.132;2023-02-01T00:26:36;31.50;;;10.70;;
20928;SDS011;21895;47.072;15.132;2023-02-01T00:29:14;36.13;;;11.37;;
20928;SDS011;21895;47.072;15.132;2023-02-01T00:31:43;50.00;;;13.23;;
20928;SDS011;21895;47.072;15.132;2023-02-01T00:34:14;44.13;;;11.80;;
20928;SDS011;21895;47.072;15.132;2023-02-01T00:36:42;38.70;;;10.83;;
20928;SDS011;21895;47.072;15.132;2023-02-01T00:39:10;29.37;;;9.10;;
20928;SDS011;21895;47.072;15.132;2023-02-01T00:41:38;29.23;;;9.23;;
20928;SDS011;21895;47.072;15.132;2023-02-01T00:44:05;22.37;;;8.17;;
20928;SDS011;21895;47.072;15.132;2023-02-01T00:46:32;32.23;;;7.70;;
20928;SDS011;21895;47.072;15.132;2023-02-01T00:48:59;21.20;;;7.10;;
20928;SDS011;21895;47.072;15.132;2023-02-01T00:51:27;18.57;;;6.23;;
20928;SDS011;21895;47.072;15.132;2023-02-01T00:53:55;25.40;;;6.23;;
20928;SDS011;21895;47.072;15.132;2023-02-01T00:56:22;14.27;;;5.07;;
20928;SDS011;21895;47.072;15.132;2023-02-01T00:58:49;23.27;;;6.03;;
20928;SDS011;21895;47.072;15.132;2023-02-01T01:01:25;25.87;;;6.83;;
20928;SDS011;21895;47.072;15.132;2023-02-01T01:03:53;30.77;;;9.20;;
20928;SDS011;21895;47.072;15.132;2023-02-01T01:06:24;20.97;;;7.87;;
20928;SDS011;21895;47.072;15.132;2023-02-01T01:08:56;25.90;;;8.33;;
20928;SDS011;21895;47.072;15.132;2023-02-01T01:11:26;18.03;;;6.63;;
20928;SDS011;21895;47.072;15.132;2023-02-01T01:13:56;18.30;;;7.13;;
20928;SDS011;21895;47.072;15.132;2023-02-01T01:16:25;27.13;;;8.27;;
20928;SDS011;21895;47.072;15.132;2023-02-01T01:18:55;23.00;;;7.40;;
20928;SDS011;21895;47.072;15.132;2023-02-01T01:21:26;24.33;;;7.17;;
20928;SDS011;21895;47.072;15.132;2023-02-01T01:23:53;14.13;;;5.87;;
20928;SDS011;21895;47.072;15.132;2023-02-01T01:26:21;23.67;;;6.73;;
20928;SDS011;21895;47.072;15.132;2023-02-01T01:28:51;24.47;;;7.27;;
20928;SDS011;21895;47.072;15.132;2023-02-01T01:31:20;18.43;;;6.20;;
20928;SDS011;21895;47.072;15.132;2023-02-01T01:33:48;17.37;;;5.73;;
20928;SDS011;21895;47.072;15.132;2023-02-01T01:36:20;23.13;;;7.80;;
20928;SDS011;21895;47.072;15.132;2023-02-01T01:38:47;26.17;;;8.13;;
20928;SDS011;21895;47.072;15.132;2023-02-01T01:41:15;20.00;;;7.47;;
20928;SDS011;21895;47.072;15.132;2023-02-01T01:44:05;20.27;;;6.73;;
20928;SDS011;21895;47.072;15.132;2023-02-01T01:47:21;18.07;;;5.77;;
20928;SDS011;21895;47.072;15.132;2023-02-01T01:49:49;18.43;;;6.20;;
20928;SDS011;21895;47.072;15.132;2023-02-01T01:52:16;30.40;;;7.77;;
20928;SDS011;21895;47.072;15.132;2023-02-01T01:54:45;23.17;;;7.70;;
20928;SDS011;21895;47.072;15.132;2023-02-01T01:57:22;18.53;;;6.90;;
20928;SDS011;21895;47.072;15.132;2023-02-01T02:00:19;19.27;;;6.50;;
20928;SDS011;21895;47.072;15.132;2023-02-01T02:02:48;21.83;;;6.43;;
20928;SDS011;21895;47.072;15.132;2023-02-01T02:05:24;19.23;;;6.60;;
20928;SDS011;21895;47.072;15.132;2023-02-01T02:07:53;17.30;;;5.33;;
20928;SDS011;21895;47.072;15.132;2023-02-01T02:10:26;17.87;;;5.57;;
20928;SDS011;21895;47.072;15.132;2023-02-01T02:13:13;16.43;;;5.17;;
20928;SDS011;21895;47.072;15.132;2023-02-01T02:15:44;14.43;;;4.40;;
20928;SDS011;21895;47.072;15.132;2023-02-01T02:18:52;13.63;;;4.77;;
20928;SDS011;21895;47.072;15.132;2023-02-01T02:27:00;15.53;;;5.20;;
20928;SDS011;21895;47.072;15.132;2023-02-01T02:35:09;20.50;;;5.53;;
20928;SDS011;21895;47.072;15.132;2023-02-01T02:37:54;14.53;;;4.93;;
20928;SDS011;21895;47.072;15.132;2023-02-01T02:41:10;15.43;;;5.63;;
20928;SDS011;21895;47.072;15.132;2023-02-01T02:44:19;14.73;;;5.77;;
20928;SDS011;21895;47.072;15.132;2023-02-01T02:47:50;15.93;;;5.57;;
20928;SDS011;21895;47.072;15.132;2023-02-01T02:50:51;16.90;;;5.33;;
20928;SDS011;21895;47.072;15.132;2023-02-01T02:55:16;12.53;;;4.10;;
20928;SDS011;21895;47.072;15.132;2023-02-01T02:57:43;16.13;;;5.67;;
20928;SDS011;21895;47.072;15.132;2023-02-01T03:00:30;14.40;;;4.90;;
20928;SDS011;21895;47.072;15.132;2023-02-01T03:03:17;14.33;;;5.43;;
20928;SDS011;21895;47.072;15.132;2023-02-01T03:06:02;15.80;;;5.23;;
20928;SDS011;21895;47.072;15.132;2023-02-01T03:08:29;18.87;;;5.03;;
20928;SDS011;21895;47.072;15.132;2023-02-01T03:11:01;13.70;;;4.10;;
20928;SDS011;21895;47.072;15.132;2023-02-01T03:13:41;15.13;;;5.53;;
20928;SDS011;21895;47.072;15.132;2023-02-01T03:16:33;14.93;;;5.10;;
20928;SDS011;21895;47.072;15.132;2023-02-01T03:19:27;14.03;;;4.10;;
20928;SDS011;21895;47.072;15.132;2023-02-01T03:22:11;14.03;;;4.70;;
20928;SDS011;21895;47.072;15.132;2023-02-01T03:24:44;14.07;;;5.00;;
20928;SDS011;21895;47.072;15.132;2023-02-01T03:27:39;15.97;;;4.57;;
20928;SDS011;21895;47.072;15.132;2023-02-01T03:30:24;15.57;;;3.93;;
20928;SDS011;21895;47.072;15.132;2023-02-01T03:33:04;14.27;;;5.00;;
20928;SDS011;21895;47.072;15.132;2023-02-01T03:41:28;15.73;;;4.83;;
20928;SDS011;21895;47.072;15.132;2023-02-01T03:44:19;11.80;;;4.10;;
20928;SDS011;21895;47.072;15.132;2023-02-01T03:47:08;13.07;;;5.10;;
20928;SDS011;21895;47.072;15.132;2023-02-01T03:49:47;10.83;;;4.40;;
20928;SDS011;21895;47.072;15.132;2023-02-01T03:52:23;11.63;;;4.33;;
20928;SDS011;21895;47.072;15.132;2023-02-01T03:54:56;10.67;;;3.97;;
20928;SDS011;21895;47.072;15.132;2023-02-01T03:57:30;19.20;;;4.67;;
20928;SDS011;21895;47.072;15.132;2023-02-01T04:00:04;15.03;;;5.20;;
20928;SDS011;21895;47.072;15.132;2023-02-01T04:02:52;12.10;;;4.70;;
20928;SDS011;21895;47.072;15.132;2023-02-01T04:05:20;20.70;;;4.67;;
20928;SDS011;21895;47.072;15.132;2023-02-01T04:07:47;16.40;;;5.73;;
20928;SDS011;21895;47.072;15.132;2023-02-01T04:10:14;14.50;;;4.80;;
20928;SDS011;21895;47.072;15.132;2023-02-01T04:12:44;14.57;;;6.10;;
20928;SDS011;21895;47.072;15.132;2023-02-01T04:15:11;22.07;;;7.57;;
20928;SDS011;21895;47.072;15.132;2023-02-01T04:17:38;17.63;;;6.57;;
20928;SDS011;21895;47.072;15.132;2023-02-01T04:20:04;17.83;;;6.37;;
20928;SDS011;21895;47.072;15.132;2023-02-01T04:22:32;26.33;;;6.67;;
20928;SDS011;21895;47.072;15.132;2023-02-01T04:24:58;17.03;;;6.07;;
20928;SDS011;21895;47.072;15.132;2023-02-01T04:27:25;18.83;;;6.93;;
20928;SDS011;21895;47.072;15.132;2023-02-01T04:29:51;19.80;;;7.07;;
20928;SDS011;21895;47.072;15.132;2023-02-01T04:32:18;15.47;;;6.53;;
20928;SDS011;21895;47.072;15.132;2023-02-01T04:34:48;15.07;;;6.33;;
20928;SDS011;21895;47.072;15.132;2023-02-01T04:37:14;19.83;;;6.90;;
20928;SDS011;21895;47.072;15.132;2023-02-01T04:39:40;13.53;;;5.17;;
20928;SDS011;21895;47.072;15.132;2023-02-01T04:42:07;23.93;;;6.27;;
20928;SDS011;21895;47.072;15.132;2023-02-01T04:44:34;16.90;;;5.77;;
20928;SDS011;21895;47.072;15.132;2023-02-01T04:47:02;11.83;;;4.37;;
20928;SDS011;21895;47.072;15.132;2023-02-01T04:49:28;12.67;;;5.03;;
20928;SDS011;21895;47.072;15.132;2023-02-01T04:51:55;23.47;;;7.83;;
20928;SDS011;21895;47.072;15.132;2023-02-01T04:54:21;16.37;;;6.93;;
20928;SDS011;21895;47.072;15.132;2023-02-01T04:56:48;19.40;;;7.00;;
20928;SDS011;21895;47.072;15.132;2023-02-01T04:59:14;16.43;;;4.87;;
20928;SDS011;21895;47.072;15.132;2023-02-01T05:01:41;14.30;;;5.77;;
20928;SDS011;21895;47.072;15.132;2023-02-01T05:04:07;19.87;;;4.40;;
20928;SDS011;21895;47.072;15.132;2023-02-01T05:06:35;12.27;;;5.03;;
20928;SDS011;21895;47.072;15.132;2023-02-01T05:09:01;16.87;;;5.50;;
20928;SDS011;21895;47.072;15.132;2023-02-01T05:11:28;11.70;;;4.73;;
20928;SDS011;21895;47.072;15.132;2023-02-01T05:14:13;11.73;;;4.23;;
20928;SDS011;21895;47.072;15.132;2023-02-01T05:16:39;7.70;;;3.27;;
20928;SDS011;21895;47.072;15.132;2023-02-01T05:19:06;10.10;;;4.03;;
20928;SDS011;21895;47.072;15.132;2023-02-01T05:21:32;21.07;;;7.07;;
20928;SDS011;21895;47.072;15.132;2023-02-01T05:23:59;15.07;;;5.53;;
20928;SDS011;21895;47.072;15.132;2023-02-01T05:26:45;13.83;;;5.07;;
20928;SDS011;21895;47.072;15.132;2023-02-01T05:29:13;17.40;;;5.23;;
20928;SDS011;21895;47.072;15.132;2023-02-01T05:31:43;17.20;;;6.53;;
20928;SDS011;21895;47.072;15.132;2023-02-01T05:34:11;12.23;;;4.80;;
20928;SDS011;21895;47.072;15.132;2023-02-01T05:36:38;12.80;;;4.70;;
20928;SDS011;21895;47.072;15.132;2023-02-01T05:39:05;11.70;;;4.50;;
20928;SDS011;21895;47.072;15.132;2023-02-01T05:41:32;12.07;;;4.57;;
20928;SDS011;21895;47.072;15.132;2023-02-01T05:43:58;14.27;;;5.70;;
20928;SDS011;21895;47.072;15.132;2023-02-01T05:46:25;15.93;;;6.13;;
20928;SDS011;21895;47.072;15.132;2023-02-01T05:48:51;14.53;;;5.00;;
20928;SDS011;21895;47.072;15.132;2023-02-01T05:51:18;16.47;;;7.13;;
20928;SDS011;21895;47.072;15.132;2023-02-01T05:53:44;13.77;;;5.53;;
20928;SDS011;21895;47.072;15.132;2023-02-01T05:56:11;11.20;;;4.63;;
20928;SDS011;21895;47.072;15.132;2023-02-01T05:58:37;25.67;;;5.57;;
20928;SDS011;21895;47.072;15.132;2023-02-01T06:01:04;23.27;;;6.70;;
20928;SDS011;21895;47.072;15.132;2023-02-01T06:03:30;14.07;;;5.47;;
20928;SDS011;21895;47.072;15.132;2023-02-01T06:05:57;10.13;;;4.40;;
20928;SDS011;21895;47.072;15.132;2023-02-01T06:08:25;10.43;;;3.40;;
20928;SDS011;21895;47.072;15.132;2023-02-01T06:11:02;9.00;;;2.73;;
20928;SDS011;21895;47.072;15.132;2023-02-01T06:13:31;10.20;;;3.80;;
20928;SDS011;21895;47.072;15.132;2023-02-01T06:16:00;10.57;;;4.67;;
20928;SDS011;21895;47.072;15.132;2023-02-01T06:18:28;10.33;;;4.67;;
20928;SDS011;21895;47.072;15.132;2023-02-01T06:20:56;16.80;;;5.60;;
20928;SDS011;21895;47.072;15.132;2023-02-01T06:23:28;15.57;;;5.70;;
20928;SDS011;21895;47.072;15.132;2023-02-01T06:26:00;12.37;;;4.30;;
20928;SDS011;21895;47.072;15.132;2023-02-01T06:28:30;13.63;;;4.70;;
20928;SDS011;21895;47.072;15.132;2023-02-01T06:30:58;13.33;;;4.50;;
20928;SDS011;21895;47.072;15.132;2023-02-01T06:33:33;11.87;;;4.50;;
20928;SDS011;21895;47.072;15.132;2023-02-01T06:36:01;13.10;;;5.33;;
20928;SDS011;21895;47.072;15.132;2023-02-01T06:38:31;10.83;;;5.37;;
20928;SDS011;21895;47.072;15.132;2023-02-01T06:41:01;10.30;;;4.53;;
20928;SDS011;21895;47.072;15.132;2023-02-01T06:43:28;12.63;;;3.60;;
20928;SDS011;21895;47.072;15.132;2023-02-01T06:46:01;11.37;;;4.17;;
20928;SDS011;21895;47.072;15.132;2023-02-01T06:48:32;14.10;;;3.77;;
20928;SDS011;21895;47.072;15.132;2023-02-01T06:50:59;12.33;;;4.67;;
20928;SDS011;21895;47.072;15.132;2023-02-01T06:53:26;17.27;;;6.80;;
20928;SDS011;21895;47.072;15.132;2023-02-01T06:55:56;16.33;;;5.70;;
20928;SDS011;21895;47.072;15.132;2023-02-01T06:58:29;13.93;;;5.63;;
20928;SDS011;21895;47.072;15.132;2023-02-01T07:00:58;20.07;;;7.37;;
20928;SDS011;21895;47.072;15.132;2023-02-01T07:03:31;24.67;;;9.53;;
20928;SDS011;21895;47.072;15.132;2023-02-01T07:05:57;25.93;;;9.30;;
20928;SDS011;21895;47.072;15.132;2023-02-01T07:08:24;19.10;;;6.13;;
20928;SDS011;21895;47.072;15.132;2023-02-01T07:10:53;65.60;;;13.57;;
20928;SDS011;21895;47.072;15.132;2023-02-01T07:13:20;28.27;;;8.50;;
20928;SDS011;21895;47.072;15.132;2023-02-01T07:15:46;34.83;;;10.37;;
20928;SDS011;21895;47.072;15.132;2023-02-01T07:18:13;215.10;;;48.60;;
20928;SDS011;21895;47.072;15.132;2023-02-01T07:20:41;65.53;;;21.07;;
20928;SDS011;21895;47.072;15.132;2023-02-01T07:23:09;44.07;;;14.20;;
20928;SDS011;21895;47.072;15.132;2023-02-01T07:25:36;41.10;;;13.00;;
20928;SDS011;21895;47.072;15.132;2023-02-01T07:28:03;25.00;;;7.83;;
20928;SDS011;21895;47.072;15.132;2023-02-01T07:30:29;32.07;;;8.97;;
20928;SDS011;21895;47.072;15.132;2023-02-01T07:32:56;54.57;;;16.37;;
20928;SDS011;21895;47.072;15.132;2023-02-01T07:35:27;55.07;;;16.87;;
20928;SDS011;21895;47.072;15.132;2023-02-01T07:37:54;41.47;;;12.97;;
20928;SDS011;21895;47.072;15.132;2023-02-01T07:40:22;46.53;;;15.27;;
20928;SDS011;21895;47.072;15.132;2023-02-01T07:42:54;76.13;;;22.37;;
20928;SDS011;21895;47.072;15.132;2023-02-01T07:45:21;52.80;;;17.47;;
20928;SDS011;21895;47.072;15.132;2023-02-01T07:47:48;61.03;;;19.63;;
20928;SDS011;21895;47.072;15.132;2023-02-01T07:50:17;46.97;;;16.83;;
20928;SDS011;21895;47.072;15.132;2023-02-01T07:52:44;37.37;;;12.50;;
20928;SDS011;21895;47.072;15.132;2023-02-01T07:55:10;42.33;;;15.33;;
20928;SDS011;21895;47.072;15.132;2023-02-01T07:57:37;49.37;;;15.23;;
20928;SDS011;21895;47.072;15.132;2023-02-01T08:00:04;39.77;;;15.77;;
20928;SDS011;21895;47.072;15.132;2023-02-01T08:02:50;40.43;;;16.07;;
20928;SDS011;21895;47.072;15.132;2023-02-01T08:05:16;35.77;;;14.17;;
20928;SDS011;21895;47.072;15.132;2023-02-01T08:07:43;35.80;;;13.37;;
20928;SDS011;21895;47.072;15.132;2023-02-01T08:10:09;44.43;;;12.80;;
20928;SDS011;21895;47.072;15.132;2023-02-01T08:12:37;36.23;;;13.23;;
20928;SDS011;21895;47.072;15.132;2023-02-01T08:15:03;38.00;;;14.30;;
20928;SDS011;21895;47.072;15.132;2023-02-01T08:17:31;35.70;;;14.20;;
20928;SDS011;21895;47.072;15.132;2023-02-01T08:19:57;40.73;;;12.90;;
20928;SDS011;21895;47.072;15.132;2023-02-01T08:22:24;36.03;;;13.60;;
20928;SDS011;21895;47.072;15.132;2023-02-01T08:24:50;27.03;;;11.20;;
20928;SDS011;21895;47.072;15.132;2023-02-01T08:27:23;30.60;;;11.53;;
20928;SDS011;21895;47.072;15.132;2023-02-01T08:29:50;30.20;;;11.13;;
20928;SDS011;21895;47.072;15.132;2023-02-01T08:32:16;28.97;;;11.40;;
20928;SDS011;21895;47.072;15.132;2023-02-01T08:34:43;26.07;;;10.13;;
20928;SDS011;21895;47.072;15.132;2023-02-01T08:37:09;21.93;;;8.47;;
20928;SDS011;21895;47.072;15.132;2023-02-01T08:39:36;26.10;;;9.67;;
20928;SDS011;21895;47.072;15.132;2023-02-01T08:42:02;21.00;;;8.40;;
20928;SDS011;21895;47.072;15.132;2023-02-01T08:44:50;20.53;;;8.43;;
20928;SDS011;21895;47.072;15.132;2023-02-01T08:47:17;20.17;;;8.67;;
20928;SDS011;21895;47.072;15.132;2023-02-01T08:49:43;45.57;;;8.50;;
20928;SDS011;21895;47.072;15.132;2023-02-01T08:52:10;20.33;;;7.07;;
20928;SDS011;21895;47.072;15.132;2023-02-01T08:54:41;29.87;;;6.53;;
20928;SDS011;21895;47.072;15.132;2023-02-01T08:57:08;16.67;;;6.43;;
20928;SDS011;21895;47.072;15.132;2023-02-01T08:59:37;12.23;;;5.20;;
20928;SDS011;21895;47.072;15.132;2023-02-01T09:02:04;15.03;;;4.67;;
20928;SDS011;21895;47.072;15.132;2023-02-01T09:04:30;18.63;;;5.40;;
20928;SDS011;21895;47.072;15.132;2023-02-01T09:06:57;9.87;;;4.10;;
20928;SDS011;21895;47.072;15.132;2023-02-01T09:09:24;12.33;;;4.90;;
20928;SDS011;21895;47.072;15.132;2023-02-01T09:11:54;13.43;;;5.57;;
20928;SDS011;21895;47.072;15.132;2023-02-01T09:14:20;15.60;;;6.73;;
20928;SDS011;21895;47.072;15.132;2023-02-01T09:16:47;22.27;;;7.03;;
20928;SDS011;21895;47.072;15.132;2023-02-01T09:19:14;18.93;;;6.60;;
20928;SDS011;21895;47.072;15.132;2023-02-01T09:21:52;19.80;;;6.80;;
20928;SDS011;21895;47.072;15.132;2023-02-01T09:24:18;19.90;;;6.97;;
20928;SDS011;21895;47.072;15.132;2023-02-01T09:26:45;13.30;;;6.40;;
20928;SDS011;21895;47.072;15.132;2023-02-01T09:29:11;26.17;;;7.63;;
20928;SDS011;21895;47.072;15.132;2023-02-01T09:31:38;31.63;;;8.63;;
20928;SDS011;21895;47.072;15.132;2023-02-01T09:34:12;17.60;;;6.53;;
20928;SDS011;21895;47.072;15.132;2023-02-01T09:36:38;25.83;;;6.63;;
20928;SDS011;21895;47.072;15.132;2023-02-01T09:39:05;21.57;;;6.80;;
20928;SDS011;21895;47.072;15.132;2023-02-01T09:49:39;10.27;;;3.87;;
20928;SDS011;21895;47.072;15.132;2023-02-01T09:53:27;10.43;;;3.83;;
20928;SDS011;21895;47.072;15.132;2023-02-01T09:56:11;8.07;;;3.90;;
20928;SDS011;21895;47.072;15.132;2023-02-01T09:58:59;19.03;;;6.73;;
20928;SDS011;21895;47.072;15.132;2023-02-01T10:01:44;12.17;;;4.57;;
20928;SDS011;21895;47.072;15.132;2023-02-01T10:04:12;16.97;;;3.53;;
20928;SDS011;21895;47.072;15.132;2023-02-01T10:07:43;8.47;;;3.30;;
20928;SDS011;21895;47.072;15.132;2023-02-01T10:10:31;14.77;;;3.80;;
20928;SDS011;21895;47.072;15.132;2023-02-01T10:13:16;11.77;;;3.57;;
20928;SDS011;21895;47.072;15.132;2023-02-01T10:16:14;1.77;;;1.10;;
20928;SDS011;21895;47.072;15.132;2023-02-01T10:29:12;1.80;;;0.70;;
20928;SDS011;21895;47.072;15.132;2023-02-01T10:31:47;1.67;;;0.70;;
20928;SDS011;21895;47.072;15.132;2023-02-01T10:34:16;3.03;;;0.70;;
20928;SDS011;21895;47.072;15.132;2023-02-01T10:37:00;1.13;;;0.57;;
20928;SDS011;21895;47.072;15.132;2023-02-01T10:39:48;1.83;;;0.73;;
20928;SDS011;21895;47.072;15.132;2023-02-01T10:42:20;2.00;;;0.60;;
20928;SDS011;21895;47.072;15.132;2023-02-01T10:44:52;2.63;;;1.13;;
20928;SDS011;21895;47.072;15.132;2023-02-01T10:47:23;5.30;;;1.37;;
20928;SDS011;21895;47.072;15.132;2023-02-01T10:49:55;1.70;;;1.13;;
20928;SDS011;21895;47.072;15.132;2023-02-01T10:52:59;1.40;;;0.70;;
20928;SDS011;21895;47.072;15.132;2023-02-01T10:55:43;3.57;;;1.07;;
20928;SDS011;21895;47.072;15.132;2023-02-01T10:58:19;2.57;;;0.70;;
20928;SDS011;21895;47.072;15.132;2023-02-01T11:01:02;2.97;;;0.33;;
20928;SDS011;21895;47.072;15.132;2023-02-01T11:03:37;2.30;;;0.60;;
20928;SDS011;21895;47.072;15.132;2023-02-01T11:09:16;1.77;;;0.60;;
20928;SDS011;21895;47.072;15.132;2023-02-01T11:14:30;2.13;;;0.30;;
20928;SDS011;21895;47.072;15.132;2023-02-01T11:17:21;1.27;;;0.70;;
20928;SDS011;21895;47.072;15.132;2023-02-01T11:20:34;0.83;;;0.80;;
20928;SDS011;21895;47.072;15.132;2023-02-01T11:23:13;4.70;;;0.80;;
20928;SDS011;21895;47.072;15.132;2023-02-01T11:29:38;0.40;;;0.40;;
20928;SDS011;21895;47.072;15.132;2023-02-01T11:32:09;1.50;;;0.73;;
20928;SDS011;21895;47.072;15.132;2023-02-01T11:34:46;1.70;;;0.70;;
20928;SDS011;21895;47.072;15.132;2023-02-01T11:37:29;0.73;;;0.40;;
20928;SDS011;21895;47.072;15.132;2023-02-01T11:40:24;1.13;;;0.70;;
20928;SDS011;21895;47.072;15.132;2023-02-01T11:42:56;1.60;;;0.70;;
20928;SDS011;21895;47.072;15.132;2023-02-01T11:45:27;4.27;;;0.87;;
20928;SDS011;21895;47.072;15.132;2023-02-01T11:47:57;2.07;;;0.70;;
20928;SDS011;21895;47.072;15.132;2023-02-01T11:50:34;1.20;;;0.83;;
20928;SDS011;21895;47.072;15.132;2023-02-01T11:57:00;2.00;;;0.70;;
20928;SDS011;21895;47.072;15.132;2023-02-01T12:02:43;1.33;;;0.70;;
20928;SDS011;21895;47.072;15.132;2023-02-01T12:11:33;1.67;;;0.90;;
20928;SDS011;21895;47.072;15.132;2023-02-01T12:15:17;3.93;;;0.50;;
20928;SDS011;21895;47.072;15.132;2023-02-01T12:18:37;1.53;;;0.50;;
20928;SDS011;21895;47.072;15.132;2023-02-01T12:21:43;1.27;;;0.97;;
20928;SDS011;21895;47.072;15.132;2023-02-01T12:33:59;1.63;;;0.83;;
20928;SDS011;21895;47.072;15.132;2023-02-01T12:37:39;4.53;;;0.67;;
20928;SDS011;21895;47.072;15.132;2023-02-01T12:46:20;8.60;;;0.60;;
20928;SDS011;21895;47.072;15.132;2023-02-01T12:54:35;0.50;;;0.50;;
20928;SDS011;21895;47.072;15.132;2023-02-01T12:57:31;1.80;;;0.80;;
20928;SDS011;21895;47.072;15.132;2023-02-01T13:01:35;1.92;;;1.04;;
20928;SDS011;21895;47.072;15.132;2023-02-01T13:05:50;0.97;;;0.70;;
20928;SDS011;21895;47.072;15.132;2023-02-01T13:08:43;1.83;;;0.60;;
20928;SDS011;21895;47.072;15.132;2023-02-01T13:15:12;1.60;;;0.70;;
20928;SDS011;21895;47.072;15.132;2023-02-01T13:17:51;0.63;;;0.50;;
20928;SDS011;21895;47.072;15.132;2023-02-01T13:20:43;1.50;;;0.70;;
20928;SDS011;21895;47.072;15.132;2023-02-01T13:23:39;0.60;;;0.60;;
20928;SDS011;21895;47.072;15.132;2023-02-01T13:26:12;0.63;;;0.50;;
20928;SDS011;21895;47.072;15.132;2023-02-01T13:28:55;1.10;;;0.70;;
20928;SDS011;21895;47.072;15.132;2023-02-01T13:43:14;2.57;;;0.77;;
20928;SDS011;21895;47.072;15.132;2023-02-01T13:45:50;0.70;;;0.70;;
20928;SDS011;21895;47.072;15.132;2023-02-01T13:48:41;1.67;;;0.77;;
20928;SDS011;21895;47.072;15.132;2023-02-01T13:51:31;1.33;;;0.80;;
20928;SDS011;21895;47.072;15.132;2023-02-01T13:54:03;2.87;;;0.73;;
20928;SDS011;21895;47.072;15.132;2023-02-01T13:56:39;0.60;;;0.50;;
20928;SDS011;21895;47.072;15.132;2023-02-01T14:07:16;0.30;;;0.30;;
20928;SDS011;21895;47.072;15.132;2023-02-01T14:09:47;0.40;;;0.40;;
20928;SDS011;21895;47.072;15.132;2023-02-01T14:16:13;1.00;;;0.67;;
20928;SDS011;21895;47.072;15.132;2023-02-01T14:18:48;0.73;;;0.50;;
20928;SDS011;21895;47.072;15.132;2023-02-01T14:21:25;5.60;;;0.50;;
20928;SDS011;21895;47.072;15.132;2023-02-01T14:27:20;1.80;;;0.90;;
20928;SDS011;21895;47.072;15.132;2023-02-01T14:29:51;1.80;;;1.10;;
20928;SDS011;21895;47.072;15.132;2023-02-01T14:32:31;0.70;;;0.70;;
20928;SDS011;21895;47.072;15.132;2023-02-01T14:35:17;1.20;;;0.80;;
20928;SDS011;21895;47.072;15.132;2023-02-01T14:37:53;2.17;;;0.90;;
20928;SDS011;21895;47.072;15.132;2023-02-01T14:40:28;0.57;;;0.50;;
20928;SDS011;21895;47.072;15.132;2023-02-01T14:42:56;1.70;;;0.70;;
20928;SDS011;21895;47.072;15.132;2023-02-01T14:45:47;1.03;;;0.63;;
20928;SDS011;21895;47.072;15.132;2023-02-01T14:48:41;1.33;;;0.50;;
20928;SDS011;21895;47.072;15.132;2023-02-01T14:51:11;0.73;;;0.73;;
20928;SDS011;21895;47.072;15.132;2023-02-01T14:53:42;1.10;;;0.83;;
20928;SDS011;21895;47.072;15.132;2023-02-01T14:56:13;1.80;;;0.80;;
20928;SDS011;21895;47.072;15.132;2023-02-01T15:01:38;1.03;;;0.70;;
20928;SDS011;21895;47.072;15.132;2023-02-01T15:04:16;1.67;;;0.70;;
20928;SDS011;21895;47.072;15.132;2023-02-01T15:06:56;1.57;;;0.63;;
20928;SDS011;21895;47.072;15.132;2023-02-01T15:09:38;1.30;;;0.50;;
20928;SDS011;21895;47.072;15.132;2023-02-01T15:12:31;0.57;;;0.50;;
20928;SDS011;21895;47.072;15.132;2023-02-01T15:15:12;1.60;;;0.60;;
20928;SDS011;21895;47.072;15.132;2023-02-01T15:17:49;0.90;;;0.60;;
20928;SDS011;21895;47.072;15.132;2023-02-01T15:20:23;0.43;;;0.43;;
20928;SDS011;21895;47.072;15.132;2023-02-01T15:22:53;0.90;;;0.73;;
20928;SDS011;21895;47.072;15.132;2023-02-01T15:25:29;3.50;;;0.37;;
20928;SDS011;21895;47.072;15.132;2023-02-01T15:28:02;1.17;;;0.90;;
20928;SDS011;21895;47.072;15.132;2023-02-01T15:30:32;0.63;;;0.60;;
20928;SDS011;21895;47.072;15.132;2023-02-01T15:33:13;1.53;;;0.80;;
20928;SDS011;21895;47.072;15.132;2023-02-01T15:35:45;0.67;;;0.60;;
20928;SDS011;21895;47.072;15.132;2023-02-01T15:41:14;1.20;;;0.73;;
20928;SDS011;21895;47.072;15.132;2023-02-01T15:47:49;1.20;;;0.90;;
20928;SDS011;21895;47.072;15.132;2023-02-01T15:50:20;4.17;;;1.63;;
20928;SDS011;21895;47.072;15.132;2023-02-01T15:52:51;1.67;;;0.83;;
20928;SDS011;21895;47.072;15.132;2023-02-01T15:55:22;1.60;;;0.90;;
20928;SDS011;21895;47.072;15.132;2023-02-01T15:58:20;3.23;;;2.10;;
20928;SDS011;21895;47.072;15.132;2023-02-01T16:01:02;1.20;;;0.87;;
20928;SDS011;21895;47.072;15.132;2023-02-01T16:03:33;2.87;;;1.20;;
20928;SDS011;21895;47.072;15.132;2023-02-01T16:06:28;3.97;;;1.37;;
20928;SDS011;21895;47.072;15.132;2023-02-01T16:09:13;2.20;;;0.97;;
20928;SDS011;21895;47.072;15.132;2023-02-01T16:12:03;1.30;;;0.77;;
20928;SDS011;21895;47.072;15.132;2023-02-01T16:14:49;1.23;;;1.10;;
20928;SDS011;21895;47.072;15.132;2023-02-01T16:17:16;1.20;;;0.83;;
20928;SDS011;21895;47.072;15.132;2023-02-01T16:19:42;3.73;;;1.77;;
20928;SDS011;21895;47.072;15.132;2023-02-01T16:22:09;3.47;;;1.50;;
20928;SDS011;21895;47.072;15.132;2023-02-01T16:24:35;2.43;;;0.93;;
20928;SDS011;21895;47.072;15.132;2023-02-01T16:27:02;2.30;;;1.20;;
20928;SDS011;21895;47.072;15.132;2023-02-01T16:29:30;5.10;;;1.30;;
20928;SDS011;21895;47.072;15.132;2023-02-01T16:31:57;1.80;;;1.10;;
20928;SDS011;21895;47.072;15.132;2023-02-01T16:34:23;1.13;;;0.83;;
20928;SDS011;21895;47.072;15.132;2023-02-01T16:36:50;2.73;;;0.73;;
20928;SDS011;21895;47.072;15.132;2023-02-01T16:39:18;2.43;;;0.93;;
20928;SDS011;21895;47.072;15.132;2023-02-01T16:41:48;3.17;;;0.97;;
20928;SDS011;21895;47.072;15.132;2023-02-01T16:44:15;0.53;;;0.53;;
20928;SDS011;21895;47.072;15.132;2023-02-01T16:46:42;0.80;;;0.77;;
20928;SDS011;21895;47.072;15.132;2023-02-01T16:49:16;2.47;;;1.13;;
20928;SDS011;21895;47.072;15.132;2023-02-01T16:51:47;1.27;;;0.80;;
20928;SDS011;21895;47.072;15.132;2023-02-01T16:54:20;3.10;;;1.30;;
20928;SDS011;21895;47.072;15.132;2023-02-01T16:56:47;3.43;;;1.73;;
20928;SDS011;21895;47.072;15.132;2023-02-01T16:59:14;3.57;;;1.40;;
20928;SDS011;21895;47.072;15.132;2023-02-01T17:01:41;0.77;;;0.57;;
20928;SDS011;21895;47.072;15.132;2023-02-01T17:04:08;1.27;;;0.77;;
20928;SDS011;21895;47.072;15.132;2023-02-01T17:06:36;0.77;;;0.50;;
20928;SDS011;21895;47.072;15.132;2023-02-01T17:09:05;2.93;;;1.20;;
20928;SDS011;21895;47.072;15.132;2023-02-01T17:11:32;4.10;;;1.80;;
20928;SDS011;21895;47.072;15.132;2023-02-01T17:14:09;7.03;;;2.33;;